Seguin, TX

10:23 AM CDT on May 27, 2017 (GMT -0500)
College Heights (South) | | Change Station

Elev 551 ft 29.57 °N, 97.96 °W | Updated 12 seconds ago

Overcast
Overcast
83.6 °F
Feels Like 93 °F
N
0.0
Wind Variable Wind from West

Today
High -- | Low -- °F
--% Chance of Precip.
Yesterday
High -- | Low -- °F
Precip. -- in
Pressure 29.87 in
Visibility 3.0 miles
Clouds Mostly Cloudy 1900 ft
Overcast 2500 ft
Heat Index 93 °F
Dew Point 76 °F
Humidity 79%
Rainfall 0.00 in
Snow Depth Not available.
6:33 AM 8:24 PM
Waxing Crescent, 5% visible
METAR KBAZ 271451Z 18014KT 3SM HZ BKN019 OVC025 28/23 A2990 RMK AO2 SLP115 T02830233 52005
Pressure 29.87 in
Visibility 3.0 miles
Clouds Mostly Cloudy 1900 ft
Overcast 2500 ft
Heat Index 93 °F
Dew Point 76 °F
Humidity 79%
Rainfall 0.00 in
Snow Depth Not available.
6:33 AM 8:24 PM
Waxing Crescent, 5% visible
METAR KBAZ 271451Z 18014KT 3SM HZ BKN019 OVC025 28/23 A2990 RMK AO2 SLP115 T02830233 52005

Get Severe Weather Alerts

Thanks for signing up!

Be on the lookout for a verification email in your inbox.

You'll start receiving the daily forecast at 6 AM.

×

10-Day Weather Forecast

Almanac

Astronomy

May. 27, 2017 Rise Set
Actual Time
Civil Twilight
Nautical Twilight
Astronomical Twilight
Moon
Length of Visible Light
Length of Day
Tomorrow will be .
, % of the Moon is Illuminated

Today's Extremes

State Highs State Lows

Community

WunderPhotos

Category 6

Welcome to Category 6. This is the collective home for Weather Underground's featured writeups by Dr. Jeff Masters (right), Bob Henson (left), Chris Burt, and other regular contributors.

Nearby

Air Quality

  Air Quality AQ Index Pollutant
Not available.

Snow Depth

Station Depth Elevation

Earthquake Activity

City Distance Mag. Time & Date
Minimum magnitude displayed is 2.5.

Coastal Water Temperatures

Place Temperature

Stations

Nearby Weather Stations

Station Location Temp. Windchill Dew Point Humidity Wind Precip. Elev Updated Type
                   

Watches & Warnings

There are currently no watches in effect.